Portada
METAR-TAF:

METAR-TAF

Aeropuertos :

Kahramanmaraş, Turquía

latitud: 37-32-20N, longitud: 036-57-12E, altitud: 525 m

Observación

El informe se hizo hace 1 hora y 2 minutos, a las 22:50 UTC
Viento 5 kt del noreste, variando entre norte-noroeste y este-noreste
Temperatura 25°C
Humedad 74%
Presión 1005 hPa
Visibilidad 10 km o más
sin nubes por debajo de 1500 m y sin presencia de cumulonimbus.

METAR: LTCN 212250Z 05005KT 340V060 CAVOK 25/20 Q1005

Hora: 02:52 (23:52 UTC)

Pronóstico

El informe se hizo hace 1 hora y 12 minutos, a las 22:40 UTC
Pronóstico válido del 22 a las 00 UTC al 22 a las 09 UTC
Viento 13 kt del oeste
Visibilidad 10 km o más
sin nubes por debajo de 1500 m y sin presencia de cumulonimbus.
Evolucionando progresivamente
del 22 a las 00 UTC al 22 a las 02 UTC
Viento 2 kt con dirección variable

TAF: LTCN 212240Z 2200/2209 28013KT CAVOK BECMG 2200/2202 VRB02KT

Observaciones y pronósticos meteorológicos de más de 4000 aeropuertos (mensajes METAR y TAF).

Los puntos amarillos y rojos representan las estaciones disponibles.

Ponga el ratón en el punto deseado para ver el nombre de la estación.

Haga clic para ver las observaciones y los pronósticos meteorológicos.

Para cambiar el mapa : haga clic en los botones verdes con una cruz de color negro para hacer un zoom, en el botón verde con un guión para alejar o en las flechas verdes para mapas adyacentes.


METAR-TAF: